Harry Bailey

Chief Scout - Chelsea
22 Feb 2027
Monday
Process

Personality

Adaptability (1) Ambition (2) Controversy (8) Loyalty (13) Pressure (1) Professionalism (13) Sportsmanship (3) Temperament (16)

Profile

Coaching Style Democratic
License Continental A
Determination 7
Man Management 7
Motivating 17
Discipline 17
Job Satisfaction
60%
Fatigue
0%
Role Chief Scout
Wage 63.4K p/w
Contract 14.03.2030

Performance

Behaviour Good
Training Effectiveness
31%
Player Development
35%
Injury Prevention
40%
Tactical Implementation
80%

Recent Events

Assessed a player now
Attended a recruitment meeting now
Recommended a transfer target now
Assessed a player now
Assessed a player now
Assessed a player now
Assessed a player now
Assessed a player now

Currently Monitoring

96
Player Club Status Ability Confidence Watched Last Observed Latest Vote
Amadou Onana Aston Villa Active 150 / 163 40% 4 21.02.2027 -
Morgan Gibbs-White Nottingham Forest Active 156 / 152 40% 2 21.02.2027 -
Mateo Kovačić Manchester City Active 157 / 152 40% 5 21.02.2027 -
Nick Woltemade Newcastle United Active 152 / 151 40% 2 20.02.2027 -
Senne Lammens Manchester United Active 143 / 150 40% 6 20.02.2027 -
Radek Vítek Middlesbrough Active 145 / 133 40% 3 20.02.2027 -
Ander Barrenetxea Real Sociedad Active 146 / 144 40% 3 20.02.2027 -
Bart Verbruggen Brighton Active 154 / 153 40% 3 20.02.2027 -
James Garner Everton Active 145 / 143 40% 2 20.02.2027 -
James Trafford Leeds United Active 148 / 138 40% 12 18.02.2027 -
Filip Stanković Lazio Active 134 / 130 40% 2 18.02.2027 -
Kostantis Tzolakis Hull City Active 138 / 139 40% 7 17.02.2027 -
Georginio Rutter Brighton Active 140 / 156 40% 3 16.02.2027 -
Kiernan Dewsbury-Hall Everton Active 145 / 142 40% 1 16.02.2027 -
Nicolò Barella Inter Active 164 / 157 40% 1 16.02.2027 -
Rico Lewis Manchester City Active 141 / 149 40% 6 15.02.2027 -
Noussair Mazraoui Manchester United Active 151 / 158 40% 2 15.02.2027 -
Yankuba Minteh Brighton Active 144 / 158 40% 1 15.02.2027 -
Robin Roefs Sunderland Active 139 / 149 40% 10 14.02.2027 -
Giacomo Raspadori Atalanta Active 154 / 152 40% 3 12.02.2027 -
Jacob Ramsey Newcastle United Active 157 / 148 40% 2 12.02.2027 -
Nico Paz Como Active 153 / 162 40% 5 11.02.2027 -
Leon Goretzka Aston Villa Active 148 / 157 40% 2 11.02.2027 -
Ollie Watkins Aston Villa Active 143 / 142 40% 1 11.02.2027 -
Adrien Truffert Bournemouth Active 147 / 155 40% 1 10.02.2027 -
Emile Smith Rowe Fulham Active 157 / 156 40% 2 09.02.2027 -
Loïs Openda Juventus Active 146 / 153 40% 3 09.02.2027 -
Kingsley Coman Al-Nassr Active 167 / 142 40% 1 08.02.2027 -
Joelinton Newcastle United Active 149 / 154 40% 2 07.02.2027 -
Malcom Al Jazira Active 152 / 147 40% 1 06.02.2027 -
Óscar Mingueza Crystal Palace Active 141 / 153 40% 1 06.02.2027 -
Tino Livramento Newcastle United Active 146 / 153 40% 2 05.02.2027 -
Moussa Diaby Al-Ittihad Active 155 / 143 40% 1 03.02.2027 -
Nicolas Jackson Aston Villa Active 145 / 142 40% 2 01.02.2027 -
Gonzalo Plata Dinamo Moscow Lost 136 / 133 40% 2 04.01.2027 -
Benjamin Šeško Manchester United Active 154 / 146 40% 2 04.01.2027 -
Nicolò Zaniolo Udinese Active 141 / 146 40% 1 04.01.2027 -
Santiago Castro AS Roma Active 149 / 153 40% 1 04.01.2027 -
Vangelis Pavlidis Benfica Lost 152 / 152 90% 1 01.01.2027 -
Ayase Ueda Manchester United Rejected 140 / 140 90% 1 01.01.2027 Reject
Mao Hosoya Corinthians Active 134 / 135 67% 1 01.01.2027 Approve
Igor Jesus Nottingham Forest Rejected 135 / 142 40% 1 01.01.2027 Needs More Info
Aune Heggebø West Bromwich Albion Active 130 / 132 40% 1 01.01.2027 -
Donyell Malen AS Roma Active 152 / 146 40% 1 29.12.2026 -
Leny Yoro Manchester United Active 138 / 154 40% 9 28.12.2026 -
Nico O'Reilly Manchester City Active 145 / 159 40% 15 28.12.2026 -
Gonçalo Ramos AC Milan Active 147 / 157 40% 2 28.12.2026 -
Francisco Chissumba Braga Active 120 / 118 40% 2 28.12.2026 -
Álex Jiménez Bournemouth Active 144 / 147 40% 12 26.12.2026 -
Jonathan David Juventus Active 154 / 147 40% 1 26.12.2026 -
Dušan Vlahović Juventus Active 169 / 164 40% 1 26.12.2026 -
Jair Nottingham Forest Active 133 / 138 40% 6 21.12.2026 -
Chris Rigg Sunderland Active 129 / 136 40% 4 21.12.2026 -
Luis Vázquez Birmingham Active 120 / 130 40% 1 20.12.2026 -
Axel Tape Bayer Leverkusen Active 123 / 136 40% 6 17.12.2026 -
Alex Tóth Bournemouth Active 109 / 119 40% 4 16.12.2026 -
Jean-Philippe Mateta Crystal Palace Rejected 144 / 157 40% 3 14.12.2026 Reject
Zeki Amdouni Burnley Active 141 / 139 40% 1 06.12.2026 -
Brennan Johnson Everton Active 149 / 149 40% 1 06.12.2026 -
Liam Delap Nottingham Forest Lost 149 / 151 40% 1 04.12.2026 -
Tamerlan Musaev CSKA Moscow Active 114 / 107 40% 1 04.12.2026 -
Largie Ramazani Leeds United Active 134 / 145 40% 1 04.12.2026 -
Hugo Ekitiké Liverpool Active 168 / 158 40% 28 30.11.2026 -
Jaydee Canvot Crystal Palace Active 134 / 139 40% 5 30.11.2026 -
Jérémy Doku Manchester City Active 167 / 170 40% 4 12.11.2026 -
Deniz Undav Manchester United Active 145 / 156 40% 7 06.11.2026 -
Alan Velasco Boca Juniors Active 122 / 129 40% 1 31.10.2026 -
George Hirst Stoke City Active 129 / 130 40% 1 31.10.2026 -
Musa Barrow Al-Khaleej Active 129 / 144 40% 2 23.10.2026 -
Evanilson Bournemouth Active 144 / 151 40% 1 23.10.2026 -
Ignacio Russo Tigre Active 119 / 120 40% 1 23.10.2026 -
Thiago Brentford Active 151 / 142 40% 2 19.10.2026 -
Richard Koné Queens Park Rangers Active 118 / 116 40% 1 19.10.2026 -
Eddie Nketiah Crystal Palace Active 142 / 137 40% 1 19.10.2026 -
Jarrod Bowen West Ham United Active 145 / 154 40% 8 17.10.2026 -
Federico Chiesa Liverpool Active 146 / 161 40% 16 16.10.2026 -
Josh Sargent Toronto FC Active 122 / 125 40% 1 28.09.2026 -
Matheus Cunha Manchester United Active 147 / 159 40% 9 27.09.2026 -
Victor Osimhen Galatasaray Active 147 / 161 40% 8 27.09.2026 -
Eliás Montiel Pachuca Active 125 / 128 40% 1 22.09.2026 -
Marcus Rashford Manchester United Active 149 / 149 40% 4 21.09.2026 -
Cody Gakpo Liverpool Active 148 / 153 40% 6 18.09.2026 -
Mateo Retegui Al-Qadisiyah Active 143 / 148 40% 5 16.09.2026 -
Bryan Mbeumo Manchester United Active 147 / 162 40% 3 14.09.2026 -
Ignacio Perruzzi San Lorenzo Active 113 / 125 40% 1 10.09.2026 -
Leandro Trossard Besiktas Active 142 / 165 40% 4 08.09.2026 -
Rafael Luís Benfica Active 112 / 120 40% 1 01.09.2026 -
Mathias De Amorim Famalicao Active 129 / 132 40% 1 30.08.2026 -
Mbekezeli Mbokazi Chicago Fire Active 130 / 121 40% 1 29.08.2026 -
Elías Báez Atlanta United FC Active 113 / 130 40% 1 29.08.2026 -
Lewis Hall Newcastle United Active 143 / 151 40% 1 25.08.2026 -
Lois Batshuayi Manchester United Active 148 / 153 40% 3 24.08.2026 -
Mason Greenwood Fenerbahce Rejected 160 / 152 40% 1 24.08.2026 Needs More Info
Boubacar Kamara Aston Villa Active 153 / 163 40% 1 23.08.2026 -
Bruno Fernandes Manchester United Active 178 / 169 40% 2 21.08.2026 -
Alexis Mac Allister Liverpool Active 169 / 166 40% 1 20.08.2026 -